createdAt,value
2022-12-09T00:06:40.157Z,27.87
2022-12-09T00:16:41.655Z,27.60
2022-12-09T00:26:43.464Z,30.00
2022-12-09T00:36:45.126Z,29.93
2022-12-09T00:46:46.970Z,32.00
2022-12-09T00:56:48.719Z,30.37
2022-12-09T01:06:51.005Z,32.23
2022-12-09T01:16:52.838Z,34.13
2022-12-09T01:26:54.719Z,33.43
2022-12-09T01:36:56.285Z,53.27
2022-12-09T01:47:00.281Z,57.87
2022-12-09T01:57:02.416Z,46.40
2022-12-09T02:07:08.205Z,42.83
2022-12-09T02:17:10.238Z,48.33
2022-12-09T02:27:18.470Z,43.60
2022-12-09T02:37:28.707Z,54.90
2022-12-09T02:47:34.873Z,45.77
2022-12-09T02:57:39.408Z,62.63
2022-12-09T03:08:18.157Z,48.17
2022-12-09T03:18:21.700Z,45.67
2022-12-09T03:28:30.547Z,40.67
2022-12-09T03:38:36.316Z,38.73
2022-12-09T03:48:37.867Z,38.07
2022-12-09T03:58:42.878Z,39.77
2022-12-09T04:08:44.897Z,43.63
2022-12-09T04:18:46.675Z,39.47
2022-12-09T04:28:48.747Z,36.50
2022-12-09T04:38:50.388Z,38.67
2022-12-09T04:48:52.762Z,35.60
2022-12-09T04:58:54.283Z,36.37
2022-12-09T05:08:55.967Z,37.00
2022-12-09T05:18:59.840Z,36.73
2022-12-09T05:29:01.797Z,37.77
2022-12-09T05:39:03.775Z,37.40
2022-12-09T05:49:05.776Z,33.17
2022-12-09T05:59:07.740Z,31.67
2022-12-09T06:09:11.802Z,32.10
2022-12-09T06:19:13.957Z,34.27
2022-12-09T06:29:15.822Z,36.07
2022-12-09T06:39:17.747Z,34.53
2022-12-09T06:49:19.402Z,37.23
2022-12-09T06:59:21.693Z,35.40
2022-12-09T07:09:23.703Z,34.07
2022-12-09T07:19:25.573Z,33.40
2022-12-09T07:29:27.226Z,36.37
2022-12-09T07:39:29.281Z,34.77
2022-12-09T07:49:30.999Z,31.50
2022-12-09T07:59:32.985Z,28.83
2022-12-09T08:09:35.021Z,27.53
2022-12-09T08:19:37.248Z,24.03
2022-12-09T08:29:38.875Z,21.03
2022-12-09T08:39:40.647Z,18.13
2022-12-09T08:49:42.726Z,18.73
2022-12-09T08:59:45.449Z,21.87
2022-12-09T09:09:48.026Z,19.97
2022-12-09T09:19:50.650Z,18.97
2022-12-09T09:29:53.604Z,20.40
2022-12-09T09:39:55.508Z,18.83
2022-12-09T09:50:26.405Z,18.60
2022-12-09T10:00:35.187Z,18.90
2022-12-09T10:10:43.560Z,17.67
2022-12-09T10:20:45.977Z,16.80
2022-12-09T10:30:52.649Z,17.83
2022-12-09T10:41:09.847Z,18.20
2022-12-09T10:51:28.013Z,16.80
2022-12-09T11:01:29.896Z,17.63
2022-12-09T11:11:47.976Z,16.57
2022-12-09T11:21:50.118Z,16.53
2022-12-09T11:31:52.311Z,15.47
2022-12-09T11:42:18.188Z,17.23
2022-12-09T11:52:28.204Z,16.20
2022-12-09T12:02:38.637Z,15.53
2022-12-09T12:12:50.449Z,16.43
2022-12-09T12:23:17.728Z,16.63
2022-12-09T12:44:35.349Z,17.20
2022-12-09T12:55:14.514Z,18.47
2022-12-09T13:05:22.023Z,16.83
2022-12-09T13:15:45.187Z,15.33
2022-12-09T13:26:10.621Z,16.43
2022-12-09T13:36:21.609Z,17.00
2022-12-09T13:46:25.564Z,17.87
2022-12-09T13:56:36.201Z,16.27
2022-12-09T14:06:40.425Z,17.27
2022-12-09T14:16:43.670Z,15.90
2022-12-09T14:26:58.037Z,15.07
2022-12-09T14:37:22.497Z,15.50
2022-12-09T14:47:30.702Z,16.33
2022-12-09T14:57:46.308Z,16.17
2022-12-09T15:07:48.941Z,14.30
2022-12-09T15:18:01.727Z,16.03
2022-12-09T15:28:04.846Z,16.23
2022-12-09T15:38:08.471Z,18.30
2022-12-09T15:48:16.021Z,20.13
2022-12-09T15:58:22.912Z,19.90
2022-12-09T16:08:33.974Z,18.40
2022-12-09T16:18:49.649Z,17.10
2022-12-09T16:28:57.538Z,17.37
2022-12-09T16:39:08.263Z,18.27
2022-12-09T16:49:10.088Z,19.07
2022-12-09T16:59:11.542Z,17.00
2022-12-09T17:09:13.444Z,20.03
2022-12-09T17:19:15.032Z,20.10
2022-12-09T17:29:16.505Z,18.63
2022-12-09T17:39:17.975Z,20.07
2022-12-09T17:49:19.988Z,20.43
2022-12-09T17:59:21.469Z,18.63
2022-12-09T18:09:24.480Z,21.03
2022-12-09T18:19:26.005Z,21.40
2022-12-09T18:29:27.674Z,21.40
2022-12-09T18:39:29.783Z,21.43
2022-12-09T18:49:32.107Z,18.70
2022-12-09T18:59:33.607Z,19.47
2022-12-09T19:09:36.239Z,19.37
2022-12-09T19:19:38.109Z,19.43
2022-12-09T19:29:39.831Z,19.23
2022-12-09T19:39:44.952Z,18.50
2022-12-09T19:49:46.411Z,17.97
2022-12-09T19:59:48.638Z,19.30
2022-12-09T20:09:50.719Z,20.30
2022-12-09T20:19:52.320Z,17.63
2022-12-09T20:29:53.773Z,20.47
2022-12-09T20:39:55.247Z,17.30
2022-12-09T20:49:56.783Z,17.40
2022-12-09T20:59:58.296Z,19.03
2022-12-09T21:09:59.881Z,17.90
2022-12-09T21:20:01.680Z,18.97
2022-12-09T21:30:03.497Z,19.37
2022-12-09T21:40:05.825Z,18.40
2022-12-09T21:50:08.892Z,17.83
2022-12-09T22:00:11.106Z,18.30
2022-12-09T22:10:12.564Z,20.27
2022-12-09T22:20:53.978Z,20.10
2022-12-09T22:30:36.560Z,20.63
2022-12-09T22:40:38.052Z,20.33
2022-12-09T22:50:39.521Z,17.37
2022-12-09T23:00:41.960Z,18.77
2022-12-09T23:10:43.531Z,19.30
2022-12-09T23:20:44.986Z,17.67
2022-12-09T23:30:46.622Z,20.07
2022-12-09T23:40:54.145Z,18.57
2022-12-09T23:50:55.805Z,18.93
